Flight Track Log - Related Links

Times and Time Zones

All times are in EDT time to prevent confusion due to time zone crossing. See the CHQ3038 flight status page for this flight to view local times or setup timezone preferences in your user account.

Time Position Orientation Groundspeed Altitude Reporting Facility
EDT Latitude Longitude Course Direction KTS MPH feet Rate Location/Type
Fri 06:23:15 AM 38.1570 -85.7139 338° Northwest  Level FlightAware Approximate
Fri 06:24:15 AM 38.1080 -85.5987 314° West  Level FlightAware Approximate
Fri 06:24:54 AM 38.2181 -85.7447 359° North 171 197 2,400  Level FAA TRACON SMA TRACON (SMA)
Fri 06:25:34 AM 38.2553 -85.7456 84° East 215 247 4,000 2,222 Climbing FAA TRACON SMA TRACON (SMA)
Fri 06:26:15 AM 38.2592 -85.6992 118° Southeast 244 281 5,400 2,250 Climbing FAA TRACON SMA TRACON (SMA)
Fri 06:26:54 AM 38.2350 -85.6425 118° Southeast 267 307 7,000 2,354 Climbing FAA TRACON SMA TRACON (SMA)
Fri 06:27:34 AM 38.2094 -85.5814 117° Southeast 285 328 8,500 2,100 Climbing FAA TRACON SMA TRACON (SMA)
Fri 06:28:14 AM 38.1861 -85.5236 116° Southeast 300 345 9,800 2,000 Climbing FAA TRACON SMA TRACON (SMA)
Fri 06:28:55 AM 38.1594 -85.4547 116° Southeast 317 365 11,200 2,025 Climbing FAA TRACON SMA TRACON (SMA)
Fri 06:29:34 AM 38.1317 -85.3828 116° Southeast 330 380 12,500 1,899 Climbing FAA TRACON SMA TRACON (SMA)
Fri 06:30:14 AM 38.1061 -85.3167 117° Southeast 341 392 13,700 1,852 Climbing FAA TRACON SMA TRACON (SMA)
Fri 06:30:55 AM 38.0758 -85.2400 107° East 353 406 15,000 1,875 Climbing FAA TRACON SMA TRACON (SMA)
Fri 06:31:34 AM 38.0556 -85.1558 100° East 361 415 16,200 1,807 Climbing FAA TRACON SMA TRACON (SMA)
Fri 06:32:18 AM 38.0428 -85.0678 99° East 368 423 17,500 1,778 Climbing FAA TRACON SMA TRACON (SMA)
Fri 06:32:55 AM 38.0333 -84.9881 99° East 373 429 18,600 1,792 Climbing FAA TRACON SMA TRACON (SMA)
Fri 06:33:35 AM 38.0219 -84.8975 98° East 378 435 19,800 1,823 Climbing FAA TRACON SMA TRACON (SMA)
Fri 06:34:14 AM 38.0128 -84.8153 99° East 383 441 21,000 1,800 Climbing FAA TRACON SMA TRACON (SMA)
Fri 06:34:55 AM 38.0017 -84.7219 102° East 389 448 22,200 1,650 Climbing FAA TRACON SMA TRACON (SMA)
Fri 06:35:34 AM 37.9878 -84.6375 99° East 382 440 23,200 1,576 Climbing Indianapolis Center
Fri 06:36:34 AM 37.9703 -84.5003 84° East 389 448 24,800 1,650 Climbing Indianapolis Center
Fri 06:37:34 AM 37.9817 -84.3633 78° East 397 457 26,500 1,650 Climbing Indianapolis Center
Fri 06:38:34 AM 38.0056 -84.2239 79° East 397 457 28,100 1,650 Climbing Indianapolis Center
Fri 06:39:34 AM 38.0272 -84.0869 80° East 396 456 29,800 1,450 Climbing Indianapolis Center
Fri 06:40:34 AM 38.0464 -83.9500 79° East 390 449 31,000 600 Climbing Indianapolis Center
Fri 06:41:34 AM 38.0697 -83.8022 79° East 404 465 31,000  Level Indianapolis Center
Fri 06:42:34 AM 38.0931 -83.6494 80° East 428 493 31,000  Level Indianapolis Center
Fri 06:43:34 AM 38.1158 -83.4911 80° East 444 511 31,000  Level Indianapolis Center
Fri 06:44:34 AM 38.1367 -83.3325 80° East 452 520 31,000  Level Indianapolis Center
Fri 06:45:34 AM 38.1592 -83.1767 75° East 452 520 31,000  Level Indianapolis Center
Fri 06:46:34 AM 38.1919 -83.0258 72° East 447 514 31,000  Level Indianapolis Center
Fri 06:47:34 AM 38.2286 -82.8775 72° East 447 514 31,000  Level Indianapolis Center
Fri 06:48:34 AM 38.2633 -82.7397 71° East 447 514 31,000  Level Indianapolis Center
Fri 06:49:34 AM 38.3017 -82.5936 81° East 441 507 31,000  Level Indianapolis Center
Fri 06:50:34 AM 38.3231 -82.4186 91° East 446 513 31,000  Level Indianapolis Center
Fri 06:51:34 AM 38.3214 -82.2519 90° East 452 520 31,000  Level Indianapolis Center
Fri 06:52:34 AM 38.3217 -82.0878 91° East 458 527 31,000  Level Indianapolis Center
Fri 06:53:34 AM 38.3192 -81.9158 91° East 465 535 31,000  Level Indianapolis Center
Fri 06:54:35 AM 38.3169 -81.7492 92° East 465 535 31,000  Level Indianapolis Center
Fri 06:55:34 AM 38.3122 -81.5850 91° East 470 541 31,000  Level Indianapolis Center
Fri 06:56:35 AM 38.3092 -81.4131 91° East 475 547 31,000  Level Indianapolis Center
Fri 06:58:36 AM 38.3056 -81.0956 91° East 482 555 31,000  Level Washington Center
Fri 06:59:37 AM 38.3028 -80.9286 92° East 482 555 31,000  Level Washington Center
Fri 07:00:37 AM 38.2983 -80.7431 86° East 482 555 31,000  Level Washington Center
Fri 07:01:35 AM 38.3078 -80.5719 83° East 482 555 31,000  Level Washington Center
Fri 07:02:37 AM 38.3228 -80.4086 83° East 477 549 31,000 -298 Level Washington Center
Fri 07:03:36 AM 38.3397 -80.2403 84° East 477 549 30,400 -1,100 Descending Washington Center
Fri 07:04:37 AM 38.3544 -80.0717 82° East 477 549 28,800 -1,563 Descending Washington Center
Fri 07:05:35 AM 38.3706 -79.9164 83° East 482 555 27,300 -900 Descending Washington Center
Fri 07:06:37 AM 38.3872 -79.7453 84° East 482 555 27,000 -148 Descending Washington Center
Fri 07:07:37 AM 38.4011 -79.5764 84° East 482 555 27,000  Level Washington Center
Fri 07:08:36 AM 38.4150 -79.4050 79° East 482 555 27,000 -50 Level Washington Center
Fri 07:09:36 AM 38.4411 -79.2367 69° East 482 555 26,900 -1,091 Descending Washington Center
Fri 07:10:37 AM 38.4944 -79.0561 69° East 482 555 24,800 -2,033 Descending Washington Center
Fri 07:11:37 AM 38.5314 -78.9306 72° East 482 555 22,800 -2,542 Descending Washington Center
Fri 07:12:35 AM 38.5736 -78.7625 70° East 471 542 19,800 -2,874 Descending Washington Center
Fri 07:13:36 AM 38.6147 -78.6208 71° East 441 507 17,100 -2,213 Descending Washington Center
Fri 07:14:37 AM 38.6514 -78.4839 69° East 417 480 15,300 -992 Descending Washington Center
Fri 07:15:37 AM 38.6900 -78.3525 52° Northeast 400 460 15,100 -149 Descending Washington Center
Fri 07:16:38 AM 38.7528 -78.2511 19° North 382 440 15,000 -50 Descending Washington Center
Fri 07:17:38 AM 38.8453 -78.2092 29° Northeast 340 391 15,000 51 Level Washington Center
Fri 07:18:35 AM 38.9322 -78.1481 41° Northeast 340 391 15,100 -305 Climbing Washington Center
Fri 07:19:36 AM 39.0089 -78.0625 92° East 350 403 14,400 -1,279 Descending Washington Center
Fri 07:20:37 AM 39.0053 -77.9261 117° Southeast 335 386 12,500 -1,623 Descending Washington Center
Fri 07:21:38 AM 38.9536 -77.7939 102° East 330 380 11,100 -1,160 Descending Washington Center
Fri 07:22:36 AM 38.9331 -77.6703 89° East 346 398 10,200 -1,322 Descending Washington Center
Fri 07:23:36 AM 38.9350 -77.5503 99° East 341 392 8,500 -906 Descending Washington Center
Fri 07:24:55 AM 38.9167 -77.4000 102° East 320 368 8,100 -358 Descending Potomac TRACON
Fri 07:25:50 AM 38.9000 -77.3000 102° East 318 366 7,700 -678 Descending Potomac TRACON
Fri 07:26:50 AM 38.8833 -77.2000 142° Southeast 303 349 6,800 -895 Descending Potomac TRACON
Fri 07:27:44 AM 38.8167 -77.1333 169° South 301 346 6,000 -1,000 Descending Potomac TRACON
Fri 07:28:44 AM 38.7500 -77.1167 180° South 272 313 4,900 -1,252 Descending Potomac TRACON
Fri 07:29:39 AM 38.6833 -77.1167 123° Southeast 256 295 3,600 -1,241 Descending Potomac TRACON
Fri 07:30:40 AM 38.6500 -77.0500 15° North 251 289 2,500 -545 Descending Potomac TRACON
Fri 07:31:40 AM 38.7000 -77.0333 15° North 197 227 2,500  Level Potomac TRACON

Login

Don't have an account? Register now (free) for customized features, flight alerts, and more!